EA4DB Madrid ES current weather conditions

sailwx.info

Wind from 225 at 0 knots gusting 3

Air temperature 18.3° C
Dewpoint 14.0° C

Last reported at 2014-Sep-22 21:51 UTC.
Time now 2014-Sep-22 22:22 UTC

Location: N 40°25' W 003°39'.
View on Google Maps.

See reports from other nearby stations

  
Tides and Currents Weather Stations Pressure Air Temp Water Temp Dewpoint Dewpoint Depression Visibility Wind Speed Wind Dir Waves Ship Positions
date/time (UTC)wind fromknots sea level pressurealtimeterstation pressurevisibilityair tempwater tempwave heightnotes
2014-Sep-22 21:51 225 0 gusting 3 18.3
2014-Sep-22 21:46 180 18.9
2014-Sep-22 21:41 203 1 gusting 5 18.9
2014-Sep-22 21:36 315 2 gusting 6 18.9
2014-Sep-22 21:31 180 3 gusting 6 18.9
2014-Sep-22 21:26 270 2 gusting 4 18.9
2014-Sep-22 21:21 225 3 gusting 6 19.4
2014-Sep-22 21:16 19.4
2014-Sep-22 21:11 248 2 gusting 5 20.0
2014-Sep-22 21:06 180 0 gusting 3 19.4
2014-Sep-22 21:01 180 0 gusting 4 19.4
2014-Sep-22 20:56 225 0 gusting 4 20.0
2014-Sep-22 20:51 180 2 gusting 5 20.0
2014-Sep-22 20:46 180 2 gusting 6 20.6
2014-Sep-22 20:41 180 0 gusting 7 20.6
2014-Sep-22 20:36 180 3 gusting 9 20.6
2014-Sep-22 20:31 225 2 gusting 8 20.6
2014-Sep-22 20:26 180 3 gusting 7 21.1
2014-Sep-22 20:21 180 3 gusting 6 21.1
2014-Sep-22 20:16 248 2 gusting 6 21.1
2014-Sep-22 20:11 225 3 gusting 9 21.1
2014-Sep-22 20:06 225 5 gusting 9 21.1
2014-Sep-22 20:01 225 5 gusting 10 21.1
2014-Sep-22 19:56 248 5 gusting 13 21.7
2014-Sep-22 19:51 315 4 gusting 7 21.1
2014-Sep-22 19:46 315 3 gusting 9 21.7
2014-Sep-22 19:41 225 2 gusting 8 21.7
2014-Sep-22 19:36 21.7
2014-Sep-22 19:31 270 3 gusting 12 21.7
2014-Sep-22 19:26 225 3 gusting 6 21.7
2014-Sep-22 19:21 180 7 gusting 9 22.2
2014-Sep-22 19:16 225 1 gusting 6 21.7
2014-Sep-22 19:11 270 3 gusting 9 21.7
2014-Sep-22 19:06 225 3 gusting 6 22.2
2014-Sep-22 19:01 225 3 gusting 8 22.2
2014-Sep-22 18:56 225 3 gusting 7 22.2
2014-Sep-22 18:51 225 6 gusting 9 22.2
2014-Sep-22 18:46 315 2 gusting 7 22.2
2014-Sep-22 18:41 180 4 gusting 6 22.2
2014-Sep-22 18:36 225 2 gusting 6 22.2
2014-Sep-22 18:31 225 3 gusting 9 22.8
2014-Sep-22 18:26 225 1 gusting 9 22.8
2014-Sep-22 18:21 315 6 gusting 9 22.8
2014-Sep-22 18:16 225 3 gusting 7 22.8
2014-Sep-22 18:11 270 3 gusting 8 22.8
2014-Sep-22 18:06 270 4 gusting 7 23.3
2014-Sep-22 18:01 270 4 gusting 7 23.3
2014-Sep-22 17:56 225 6 gusting 12 23.3
2014-Sep-22 17:51 225 6 gusting 9 23.3
2014-Sep-22 17:46 315 6 gusting 12 23.3
2014-Sep-22 17:41 225 3 gusting 9 23.3
2014-Sep-22 17:36 270 5 gusting 11 23.9
2014-Sep-22 17:31 225 4 gusting 8 23.3
2014-Sep-22 17:26 225 3 gusting 9 24.4
2014-Sep-22 17:21 225 1 gusting 6 24.4
2014-Sep-22 17:16 293 2 gusting 7 24.4
2014-Sep-22 17:11 270 1 gusting 9 25.0
2014-Sep-22 17:06 225 3 gusting 9 25.0
2014-Sep-22 17:01 180 3 gusting 6 25.0
2014-Sep-22 16:56 225 2 gusting 8 25.6
2014-Sep-22 16:51 270 3 gusting 8 26.1
2014-Sep-22 16:46 225 3 gusting 6 26.1
2014-Sep-22 16:41 225 2 gusting 6 26.1
2014-Sep-22 16:36 225 3 gusting 9 25.6
2014-Sep-22 16:31 180 1 gusting 5 25.6
2014-Sep-22 16:26 270 4 gusting 13 26.1
2014-Sep-22 16:21 180 1 gusting 6 26.1
2014-Sep-22 16:16 225 2 gusting 7 26.7
2014-Sep-22 16:11 270 0 gusting 8 26.7
2014-Sep-22 16:06 338 1 gusting 6 26.7
2014-Sep-22 16:01 248 3 gusting 10 26.7
2014-Sep-22 15:56 270 3 gusting 6 27.2
2014-Sep-22 15:51 248 3 gusting 9 27.2
2014-Sep-22 15:46 315 1 gusting 6 27.8
2014-Sep-22 15:41 180 1 gusting 5 28.3
2014-Sep-22 15:36 135 3 gusting 9 27.8
2014-Sep-22 15:31 225 1 gusting 9 29.4
2014-Sep-22 15:26 225 0 gusting 6 29.4
2014-Sep-22 15:21 270 29.4
2014-Sep-22 15:16 225 3 gusting 5 28.9
2014-Sep-22 15:11 180 3 gusting 6 29.4
2014-Sep-22 15:06 248 3 gusting 5 30.6
2014-Sep-22 15:01 29.4
2014-Sep-22 14:56 315 1 gusting 3 28.9
2014-Sep-22 14:51 270 0 gusting 3 28.3
2014-Sep-22 14:46 26.7
2014-Sep-22 14:41 315 3 gusting 6 26.7
2014-Sep-22 14:36 225 3 gusting 6 27.2
2014-Sep-22 14:31 270 2 gusting 6 26.1
2014-Sep-22 14:26 225 1 gusting 8 26.7
2014-Sep-22 14:21 225 1 gusting 6 27.2
2014-Sep-22 14:16 270 1 gusting 6 26.7
2014-Sep-22 14:11 315 2 gusting 6 26.7
2014-Sep-22 14:06 225 0 gusting 2 27.8
2014-Sep-22 14:01 225 0 gusting 5 27.8
2014-Sep-22 13:56 225 1 gusting 3 27.2
2014-Sep-22 13:51 315 1 gusting 5 26.7
2014-Sep-22 13:46 25.6
2014-Sep-22 13:41 225 3 gusting 6 25.6
2014-Sep-22 13:36 315 1 gusting 6 25.6
2014-Sep-22 13:31 225 1 gusting 4 26.1
2014-Sep-22 13:26 270 1 gusting 3 26.7
2014-Sep-22 13:21 315 2 gusting 6 26.7
2014-Sep-22 13:16 225 4 gusting 6 26.1
2014-Sep-22 13:11 180 1 gusting 5 26.1
2014-Sep-22 13:06 225 3 gusting 9 25.6
2014-Sep-22 13:01 248 3 gusting 9 26.7
2014-Sep-22 12:56 248 1 gusting 5 26.7
2014-Sep-22 12:51 315 3 gusting 5 26.1
2014-Sep-22 12:46 180 0 gusting 4 26.7
2014-Sep-22 12:41 315 1 gusting 3 27.2
2014-Sep-22 12:36 315 0 gusting 3 27.2
2014-Sep-22 08:01 248 20.0
2014-Sep-22 07:56 090 18.9
2014-Sep-22 07:51 315 17.8
2014-Sep-22 07:46 090 1 gusting 2 16.7
2014-Sep-22 07:41 17.2
2014-Sep-22 07:36 16.7
2014-Sep-22 07:31 315 0 gusting 1 16.7
2014-Sep-22 07:26 315 0 gusting 1 16.7
2014-Sep-22 07:21 16.7
2014-Sep-22 07:16 270 16.7
2014-Sep-22 07:11 248 16.7
2014-Sep-22 07:06 16.7
2014-Sep-22 07:01 090 16.1
2014-Sep-22 06:56 315 16.7
2014-Sep-22 06:51 16.7
2014-Sep-22 06:46 16.1
2014-Sep-22 06:41 16.7
2014-Sep-22 06:36 16.1
2014-Sep-22 06:31 248 15.6
2014-Sep-22 06:26 248 16.1
2014-Sep-22 06:21 16.1
2014-Sep-22 06:16 16.1
2014-Sep-22 06:11 135 15.6
2014-Sep-22 06:06 248 16.7
2014-Sep-22 06:01 090 16.1
2014-Sep-22 05:56 15.6
2014-Sep-22 05:51 248 15.6
2014-Sep-22 05:46 090 16.1
2014-Sep-22 05:41 315 16.1
2014-Sep-22 05:36 16.1
2014-Sep-22 05:31 15.6
2014-Sep-22 05:26 315 15.6
2014-Sep-22 05:21 16.1
2014-Sep-22 05:16 15.6
2014-Sep-22 05:11 135 15.6
2014-Sep-22 05:06 315 15.6
2014-Sep-22 05:01 15.6
2014-Sep-22 04:56 15.6
2014-Sep-22 04:51 15.6
2014-Sep-22 04:46 16.1
2014-Sep-22 04:41 15.0
2014-Sep-22 04:36 15.6
2014-Sep-22 04:31 15.6
2014-Sep-22 04:26 15.0
2014-Sep-22 04:21 15.6
2014-Sep-22 04:16 315 15.6
2014-Sep-22 04:11 135 15.6
2014-Sep-22 04:06 135 0 gusting 2 15.6
2014-Sep-22 04:01 135 0 gusting 2 15.6
2014-Sep-22 03:56 135 15.6
2014-Sep-22 03:51 270 16.1
2014-Sep-22 03:46 135 0 gusting 2 15.0
2014-Sep-22 03:41 15.6
2014-Sep-22 03:36 090 15.6
2014-Sep-22 03:31 090 0 gusting 3 16.1
2014-Sep-22 03:26 045 16.1
2014-Sep-22 03:21 248 0 gusting 2 16.1
2014-Sep-22 03:16 090 0 gusting 3 16.1
2014-Sep-22 03:11 045 16.1
2014-Sep-22 03:06 045 0 gusting 1 16.1
2014-Sep-22 03:01 045 0 gusting 1 16.1
2014-Sep-22 02:56 15.6
2014-Sep-22 02:51 315 16.1
2014-Sep-22 02:46 225 0 gusting 2 16.7
2014-Sep-22 02:41 315 1 gusting 2 16.1
2014-Sep-22 02:36 15.6
2014-Sep-22 02:31 045 16.7
2014-Sep-22 02:26 225 0 gusting 2 16.1
2014-Sep-22 02:21 16.7
2014-Sep-22 02:16 15.6
2014-Sep-22 02:11 315 0 gusting 1 16.1
2014-Sep-22 02:06 090 16.7
2014-Sep-22 02:01 090 16.7
2014-Sep-22 01:56 135 16.7
2014-Sep-22 01:51 315 15.6
2014-Sep-22 01:46 045 16.1
2014-Sep-22 01:41 315 15.6
2014-Sep-22 01:36 045 0 gusting 3 16.1
2014-Sep-22 01:31 16.7
2014-Sep-22 01:26 16.1
2014-Sep-22 01:21 17.2
2014-Sep-22 01:16 315 1 gusting 4 15.6
2014-Sep-22 01:11 17.2
2014-Sep-22 01:06 16.1
2014-Sep-22 01:01 16.1
2014-Sep-22 00:56 16.1
2014-Sep-22 00:51 315 0 gusting 3 16.7
2014-Sep-22 00:46 045 1 gusting 4 16.1
2014-Sep-22 00:41 090 3 gusting 9 16.7
2014-Sep-22 00:36 090 1 gusting 3 16.7
2014-Sep-22 00:31 090 16.7
2014-Sep-22 00:26 16.1
2014-Sep-22 00:21 090 16.1
2014-Sep-22 00:16 225 1 gusting 3 16.7
2014-Sep-22 00:11 090 16.7
2014-Sep-22 00:06 180 1 gusting 2 16.1
2014-Sep-22 00:01 180 1 gusting 2 16.1
2014-Sep-21 23:56 090 16.1
2014-Sep-21 23:51 135 16.7
2014-Sep-21 23:46 225 0 gusting 1 16.7
2014-Sep-21 23:41 225 0 gusting 5 16.7
2014-Sep-21 23:36 225 1 gusting 5 16.7
2014-Sep-21 23:31 180 3 gusting 7 16.1
2014-Sep-21 23:26 180 2 gusting 6 16.7
2014-Sep-21 23:21 315 1 gusting 6 17.2
2014-Sep-21 23:16 270 3 gusting 7 16.7
2014-Sep-21 23:11 293 3 gusting 7 17.2
2014-Sep-21 23:06 315 3 gusting 7 17.2
2014-Sep-21 23:01 315 3 gusting 7 17.2
2014-Sep-21 22:56 225 1 gusting 10 17.2
2014-Sep-21 22:51 203 5 gusting 12 17.8
2014-Sep-21 22:46 203 3 gusting 9 17.8
2014-Sep-21 22:41 270 6 gusting 13 18.3
2014-Sep-21 22:36 225 6 gusting 17 17.8
2014-Sep-21 22:31 225 6 gusting 11 17.8
2014-Sep-21 22:26 225 6 gusting 14 17.8
2014-Sep-21 22:21 248 5 gusting 13 18.3
2014-Sep-21 22:16 270 4 gusting 9 17.8
2014-Sep-21 22:11 225 5 gusting 7 18.3
2014-Sep-21 22:06 315 0 gusting 1 18.3
2014-Sep-21 22:01 315 0 gusting 4 18.3
2014-Sep-21 21:56 225 3 gusting 9 18.3
2014-Sep-21 21:51 203 3 gusting 14 18.3
2014-Sep-21 21:46 225 3 gusting 6 18.3
2014-Sep-21 21:41 270 6 gusting 13 17.8
2014-Sep-21 21:36 203 7 gusting 13 18.3
2014-Sep-21 21:31 270 5 gusting 13 17.8
2014-Sep-21 21:26 315 4 gusting 13 18.3
2014-Sep-21 21:21 225 8 gusting 14 18.9
2014-Sep-21 21:16 180 8 gusting 14 19.4
2014-Sep-21 21:11 225 3 gusting 8 18.9
2014-Sep-21 21:06 225 20.0
2014-Sep-21 21:01 225 20.0
2014-Sep-21 20:56 225 3 gusting 9 19.4
2014-Sep-21 20:51 225 5 gusting 8 21.1
2014-Sep-21 20:46 270 0 gusting 8 22.8
2014-Sep-21 20:41 225 3 gusting 6 22.2
2014-Sep-21 20:36 225 22.2
2014-Sep-21 20:31 22.2
2014-Sep-21 20:26 180 22.8
2014-Sep-21 20:21 315 0 gusting 1 22.8
2014-Sep-21 20:16 135 22.8
2014-Sep-21 20:11 225 22.8
2014-Sep-21 20:06 315 22.8
2014-Sep-21 20:01 315 22.8
2014-Sep-21 19:56 180 3 gusting 7 22.8
2014-Sep-21 19:51 135 3 gusting 6 22.8
2014-Sep-21 19:46 270 0 gusting 5 22.8
2014-Sep-21 19:41 270 3 gusting 9 23.9
2014-Sep-21 19:36 315 0 gusting 6 23.3
2014-Sep-21 19:31 225 2 gusting 9 23.9
2014-Sep-21 19:26 315 2 gusting 13 24.4
2014-Sep-21 19:21 225 5 gusting 11 25.0
2014-Sep-21 19:16 180 6 gusting 13 25.0
2014-Sep-21 19:11 225 3 gusting 10 25.0
2014-Sep-21 19:06 225 0 gusting 6 25.0
2014-Sep-21 19:01 25.6
2014-Sep-21 18:56 225 1 gusting 6 25.6
2014-Sep-21 18:51 180 2 gusting 5 25.6
2014-Sep-21 18:46 023 0 gusting 5 25.0
2014-Sep-21 18:41 315 0 gusting 3 25.0
2014-Sep-21 18:36 135 1 gusting 3 25.6
2014-Sep-21 18:31 225 1 gusting 4 25.0
2014-Sep-21 18:26 270 25.6
2014-Sep-21 18:21 180 0 gusting 4 25.6
2014-Sep-21 18:16 225 25.6
2014-Sep-21 18:11 180 2 gusting 4 25.6
2014-Sep-21 18:06 180 26.1
2014-Sep-21 18:01 180 26.1
2014-Sep-21 17:56 225 0 gusting 3 26.1
2014-Sep-21 17:51 180 26.1
2014-Sep-21 17:46 180 3 gusting 6 26.1
2014-Sep-21 17:41 225 1 gusting 6 26.7
2014-Sep-21 17:36 225 26.1
2014-Sep-21 17:31 225 2 gusting 6 26.1
2014-Sep-21 17:26 225 0 gusting 6 26.1
2014-Sep-21 17:21 225 3 gusting 6 26.7
2014-Sep-21 17:16 225 1 gusting 7 26.7
2014-Sep-21 17:11 225 4 gusting 8 26.7
2014-Sep-21 17:06 225 1 gusting 4 26.7
2014-Sep-21 17:01 225 1 gusting 9 26.7
2014-Sep-21 16:56 180 2 gusting 6 27.2
2014-Sep-21 16:51 225 3 gusting 6 26.7
2014-Sep-21 16:46 225 2 gusting 5 27.2
2014-Sep-21 16:41 27.2
2014-Sep-21 16:36 225 3 gusting 8 27.2
2014-Sep-21 16:31 203 6 gusting 9 27.8
2014-Sep-21 16:26 270 2 gusting 9 27.8
2014-Sep-21 16:21 225 3 gusting 8 27.8
2014-Sep-21 16:16 180 5 gusting 9 28.3
2014-Sep-21 16:11 180 3 gusting 6 28.3
2014-Sep-21 16:06 225 1 gusting 6 27.8
2014-Sep-21 16:01 225 1 gusting 9 28.3
2014-Sep-21 15:56 225 3 gusting 6 28.3
2014-Sep-21 15:51 180 3 gusting 9 27.8
2014-Sep-21 15:46 203 5 gusting 9 27.8
2014-Sep-21 15:41 248 6 gusting 8 28.3
2014-Sep-21 15:36 180 2 gusting 9 28.3
2014-Sep-21 15:31 225 3 gusting 8 28.3
2014-Sep-21 15:26 180 2 gusting 7 28.3
2014-Sep-21 15:21 180 3 gusting 6 28.3
2014-Sep-21 15:16 28.9
2014-Sep-21 15:11 315 6 gusting 9 30.0
2014-Sep-21 15:06 225 1 gusting 2 30.6
2014-Sep-21 15:01 225 1 gusting 6 30.6
2014-Sep-21 14:56 135 2 gusting 6 31.1
2014-Sep-21 14:51 31.7
2014-Sep-21 14:46 180 31.7
2014-Sep-21 14:41 225 0 gusting 8 31.1
2014-Sep-21 14:36 315 1 gusting 6 31.1
2014-Sep-21 14:31 225 1 gusting 9 30.6
2014-Sep-21 14:26 225 2 gusting 6 30.6
2014-Sep-21 14:21 135 3 gusting 11 30.0
2014-Sep-21 14:16 225 4 gusting 11 31.1
2014-Sep-21 14:11 203 0 gusting 9 30.6
2014-Sep-21 14:06 270 1 gusting 3 31.1
2014-Sep-21 14:01 270 1 gusting 4 31.1
2014-Sep-21 13:56 225 1 gusting 7 30.6
2014-Sep-21 13:51 225 1 gusting 6 30.6
2014-Sep-21 13:46 315 2 gusting 7 30.6
2014-Sep-21 13:41 225 1 gusting 6 30.6
2014-Sep-21 13:36 225 3 gusting 6 31.1
2014-Sep-21 13:31 135 2 gusting 6 31.7
2014-Sep-21 13:26 180 4 gusting 7 31.7
2014-Sep-21 13:21 180 3 gusting 5 31.7
2014-Sep-21 13:16 090 31.1
2014-Sep-21 13:11 225 31.1
2014-Sep-21 13:06 270 0 gusting 1 31.1
2014-Sep-21 13:01 270 0 gusting 3 31.1
2014-Sep-21 12:56 315 0 gusting 4 30.6
2014-Sep-21 12:51 225 1 gusting 6 30.0
2014-Sep-21 12:46 180 1 gusting 6 30.0
2014-Sep-21 12:41 225 1 gusting 5 29.4
2014-Sep-21 12:36 135 1 gusting 6 29.4
2014-Sep-21 12:31 180 0 gusting 6 29.4
2014-Sep-21 12:26 270 3 gusting 6 29.4
2014-Sep-21 12:21 180 3 gusting 9 29.4
2014-Sep-21 12:16 28.9
2014-Sep-21 12:11 023 2 gusting 5 28.9
2014-Sep-21 12:06 225 3 gusting 5 28.9
2014-Sep-21 12:01 225 3 gusting 6 28.9
2014-Sep-21 11:56 225 29.4
2014-Sep-21 11:51 180 28.9
2014-Sep-21 11:46 135 1 gusting 6 29.4
2014-Sep-21 11:41 270 1 gusting 3 30.0
2014-Sep-21 11:36 180 0 gusting 2 30.0
2014-Sep-21 11:31 30.0
2014-Sep-21 11:26 270 0 gusting 4 29.4
2014-Sep-21 11:21 180 30.0
2014-Sep-21 11:16 270 0 gusting 3 30.0
2014-Sep-21 11:11 090 1 gusting 4 29.4
2014-Sep-21 11:06 135 28.9
2014-Sep-21 11:01 135 28.9
2014-Sep-21 10:56 180 4 gusting 6 30.6
2014-Sep-21 10:51 315 30.6
2014-Sep-21 10:46 180 0 gusting 3 29.4
2014-Sep-21 10:41 090 2 gusting 4 30.0
2014-Sep-21 10:36 180 30.0
2014-Sep-21 10:31 180 29.4
2014-Sep-21 10:26 29.4
2014-Sep-21 10:21 225 1 gusting 3 28.9
2014-Sep-21 10:16 28.9
2014-Sep-21 10:11 28.3
2014-Sep-21 10:06 248 0 gusting 1 28.3
2014-Sep-21 10:01 248 0 gusting 3 28.3
2014-Sep-21 09:56 225 1 gusting 2 27.8
2014-Sep-21 09:51 270 27.2
2014-Sep-21 09:46 090 2 gusting 3 27.2
2014-Sep-21 09:41 135 0 gusting 4 26.7
2014-Sep-21 09:36 26.1
2014-Sep-21 09:31 25.6
2014-Sep-21 09:26 338 1 gusting 3 25.0
2014-Sep-21 09:21 25.0
2014-Sep-21 09:16 25.0
2014-Sep-21 09:11 315 0 gusting 1 25.0
2014-Sep-21 09:06 090 1 gusting 3 24.4
2014-Sep-21 09:01 090 1 gusting 3 24.4
2014-Sep-21 08:56 23.9
2014-Sep-21 08:51 135 1 gusting 4 23.9
2014-Sep-21 08:46 090 0 gusting 5 23.9
2014-Sep-21 08:41 090 1 gusting 6 24.4
2014-Sep-21 08:36 25.0
2014-Sep-21 08:31 25.0
2014-Sep-21 08:26 315 0 gusting 5 24.4
2014-Sep-21 08:21 23.9
2014-Sep-21 08:16 23.3
2014-Sep-21 08:11 315 0 gusting 4 23.3
2014-Sep-21 08:06 180 21.1
2014-Sep-21 08:01 180 21.1
2014-Sep-21 07:56 090 21.1
2014-Sep-21 07:51 21.1
2014-Sep-21 07:46 248 2 gusting 6 22.2
2014-Sep-21 07:41 090 2 gusting 5 21.7
2014-Sep-21 07:36 248 1 gusting 7 21.7
2014-Sep-21 07:31 270 1 gusting 4 22.2
2014-Sep-21 07:26 090 2 gusting 5 21.7
2014-Sep-21 07:21 090 0 gusting 4 21.1
2014-Sep-21 07:16 135 20.6
2014-Sep-21 07:11 315 4 gusting 6 19.4
2014-Sep-21 07:06 20.0
2014-Sep-21 07:01 090 3 gusting 7 20.0
2014-Sep-21 06:56 19.4
2014-Sep-21 06:51 090 1 gusting 3 18.9
2014-Sep-21 06:46 18.9
2014-Sep-21 06:41 18.9
2014-Sep-21 06:36 315 18.3
2014-Sep-21 06:31 225 3 gusting 6 18.3
2014-Sep-21 06:26 090 3 gusting 6 18.3
2014-Sep-21 06:21 090 0 gusting 5 18.3
2014-Sep-21 06:16 225 18.3
2014-Sep-21 06:11 315 1 gusting 6 17.8
2014-Sep-21 06:06 18.3
2014-Sep-21 06:01 18.3
2014-Sep-21 05:56 18.3
2014-Sep-21 05:51 18.3
2014-Sep-21 05:46 135 0 gusting 2 18.3
2014-Sep-21 05:41 248 1 gusting 4 18.3
2014-Sep-21 05:36 248 18.3
2014-Sep-21 05:31 315 0 gusting 3 18.3
2014-Sep-21 05:26 315 1 gusting 3 18.3
2014-Sep-21 05:21 18.3
2014-Sep-21 05:16 090 1 gusting 4 18.9
2014-Sep-21 05:11 18.3
2014-Sep-21 05:06 225 0 gusting 1 18.3
2014-Sep-21 05:01 225 0 gusting 6 18.3
2014-Sep-21 04:56 090 0 gusting 5 18.9
2014-Sep-21 04:51 18.3
2014-Sep-21 04:46 315 2 gusting 5 18.9
2014-Sep-21 04:41 315 3 gusting 6 18.9
2014-Sep-21 04:36 18.3
2014-Sep-21 04:31 315 18.3
2014-Sep-21 04:26 18.3
2014-Sep-21 04:21 18.3
2014-Sep-21 04:16 18.3
2014-Sep-21 04:11 315 18.3
2014-Sep-21 04:06 18.3
2014-Sep-21 04:01 18.3
2014-Sep-21 03:56 090 0 gusting 3 18.3
2014-Sep-21 03:51 18.9
2014-Sep-21 03:46 090 18.3
2014-Sep-21 03:41 18.9
2014-Sep-21 03:36 18.3
2014-Sep-21 03:31 18.9
2014-Sep-21 03:26 18.3
2014-Sep-21 03:21 315 1 gusting 5 18.3
2014-Sep-21 03:16 18.3
2014-Sep-21 03:11 315 18.9
2014-Sep-21 03:06 18.9
2014-Sep-21 03:01 18.9
2014-Sep-21 02:56 270 18.9
2014-Sep-21 02:51 18.9
2014-Sep-21 02:46 18.9
2014-Sep-21 02:41 315 19.4
2014-Sep-21 02:36 180 19.4
2014-Sep-21 02:31 090 19.4
2014-Sep-21 02:26 19.4
2014-Sep-21 02:21 19.4
2014-Sep-21 02:16 248 0 gusting 3 19.4
2014-Sep-21 02:11 19.4
2014-Sep-21 02:06 090 20.0
2014-Sep-21 02:01 090 20.0
2014-Sep-21 01:56 090 0 gusting 2 19.4
2014-Sep-21 01:51 180 0 gusting 3 20.0
2014-Sep-21 01:46 19.4
2014-Sep-21 01:41 19.4
2014-Sep-21 01:36 248 19.4
2014-Sep-21 01:31 225 19.4
2014-Sep-21 01:26 19.4
2014-Sep-21 01:21 19.4
2014-Sep-21 01:16 19.4
2014-Sep-21 01:11 19.4
2014-Sep-21 01:06 19.4
2014-Sep-21 01:01 19.4
2014-Sep-21 00:56 19.4
2014-Sep-21 00:51 19.4
2014-Sep-21 00:46 19.4
2014-Sep-21 00:41 20.0
2014-Sep-21 00:36 20.0
2014-Sep-21 00:31 293 1 gusting 2 19.4
2014-Sep-21 00:26 20.0
2014-Sep-21 00:21 20.0
2014-Sep-21 00:16 19.4
2014-Sep-21 00:11 315 0 gusting 2 20.0
2014-Sep-21 00:06 248 0 gusting 1 20.0
2014-Sep-21 00:01 248 0 gusting 3 20.0
2014-Sep-20 23:56 20.6
2014-Sep-20 23:51 225 2 gusting 9 20.0
2014-Sep-20 23:46 293 1 gusting 5 20.0
2014-Sep-20 23:41 20.0
2014-Sep-20 23:36 113 20.0
2014-Sep-20 23:31 135 20.6
2014-Sep-20 23:26 248 2 gusting 5 20.0
2014-Sep-20 23:21 270 20.0
2014-Sep-20 23:16 225 20.6
2014-Sep-20 23:11 248 1 gusting 3 20.6
2014-Sep-20 23:06 20.6
2014-Sep-20 23:01 20.6
2014-Sep-20 22:56 20.6
2014-Sep-20 22:51 225 20.6
2014-Sep-20 22:46 20.6
2014-Sep-20 22:41 090 1 gusting 3 21.1
2014-Sep-20 22:36 21.1
2014-Sep-20 22:31 090 21.1
2014-Sep-20 22:26 090 21.7
2014-Sep-20 22:21 248 1 gusting 3 21.1
2014-Sep-20 22:16 090 21.1
2014-Sep-20 22:11 090 21.1
2014-Sep-20 22:06 21.1
2014-Sep-20 22:01 21.1